Time;durP1;ratioP1;P1;durP2;ratioP2;P2;SDS_P1;SDS_P2;PMS_P1;PMS_P2;Temp;Humidity;BMP_temperature;BMP_pressure;BME280_temperature;BME280_humidity;BME280_pressure;Samples;Min_cycle;Max_cycle;Signal;HPM_P1;HPM_P2
2022/07/25 00:01:04;;;;;;;2.80;2.10;;;21.90;67.70;;;;;;4815424;29;20038;-77
2022/07/25 00:03:30;;;;;;;4.18;2.40;;;21.90;67.80;;;;;;4817155;29;20030;-76
2022/07/25 00:05:56;;;;;;;2.80;2.33;;;21.90;67.80;;;;;;4817527;29;20217;-77
2022/07/25 00:08:21;;;;;;;2.70;1.98;;;21.80;67.70;;;;;;4824006;29;20022;-77
2022/07/25 00:10:47;;;;;;;5.28;3.13;;;21.80;67.80;;;;;;4822395;29;20042;-76
2022/07/25 00:13:13;;;;;;;2.55;1.90;;;21.80;67.80;;;;;;4822811;29;20043;-77
2022/07/25 00:15:39;;;;;;;4.95;2.38;;;21.80;67.80;;;;;;4820366;29;20074;-77
2022/07/25 00:18:05;;;;;;;3.65;2.30;;;21.80;67.90;;;;;;4817905;29;20050;-77
2022/07/25 00:20:31;;;;;;;4.32;2.17;;;21.80;67.90;;;;;;4819614;29;20098;-76
2022/07/25 00:22:57;;;;;;;4.65;2.20;;;21.80;68.00;;;;;;4818903;29;20039;-77
2022/07/25 00:25:23;;;;;;;5.03;2.13;;;21.80;68.00;;;;;;4804309;29;20030;-77
2022/07/25 00:27:49;;;;;;;2.85;1.95;;;21.80;68.10;;;;;;4815299;29;20057;-77
2022/07/25 00:30:15;;;;;;;4.65;2.08;;;21.80;68.10;;;;;;4817896;29;20241;-77
2022/07/25 00:32:40;;;;;;;3.67;2.10;;;21.70;68.00;;;;;;4814406;29;20061;-77
2022/07/25 00:35:07;;;;;;;4.28;2.50;;;21.70;68.10;;;;;;4816320;29;20434;-77
2022/07/25 00:37:33;;;;;;;5.95;2.63;;;21.70;68.10;;;;;;4816713;29;20054;-77
2022/07/25 00:39:59;;;;;;;4.03;2.40;;;21.70;68.20;;;;;;4820662;29;20151;-77
2022/07/25 00:42:25;;;;;;;3.88;2.28;;;21.70;68.20;;;;;;4820262;29;20469;-77
2022/07/25 00:44:51;;;;;;;3.88;2.35;;;21.70;68.20;;;;;;4819180;29;20045;-77
2022/07/25 00:47:17;;;;;;;3.10;1.80;;;21.70;68.30;;;;;;4802851;29;20038;-77
2022/07/25 00:49:43;;;;;;;5.32;2.28;;;21.60;68.20;;;;;;4815431;29;20053;-76
2022/07/25 00:52:09;;;;;;;4.70;2.90;;;21.60;68.30;;;;;;4816538;29;20497;-76
2022/07/25 00:54:35;;;;;;;3.35;1.80;;;21.60;68.30;;;;;;4816000;29;20026;-76
2022/07/25 00:57:01;;;;;;;6.20;2.63;;;21.60;68.30;;;;;;4812936;29;20038;-76
2022/07/25 00:59:27;;;;;;;3.30;1.75;;;21.50;68.70;;;;;;4813996;29;20374;-75
2022/07/25 01:01:53;;;;;;;4.90;2.53;;;21.50;68.20;;;;;;4796590;29;20037;-77
2022/07/25 01:04:19;;;;;;;5.32;2.92;;;21.50;68.30;;;;;;4814287;29;20042;-77
2022/07/25 01:06:45;;;;;;;4.72;1.95;;;21.50;68.30;;;;;;4797308;29;20110;-76
2022/07/25 01:09:12;;;;;;;3.92;1.60;;;21.50;68.40;;;;;;4805077;29;20462;-75
2022/07/25 01:11:38;;;;;;;4.85;2.40;;;21.40;68.30;;;;;;4815836;29;20078;-76
2022/07/25 01:14:04;;;;;;;3.42;2.00;;;21.40;68.30;;;;;;4813629;29;20042;-75
2022/07/25 01:16:30;;;;;;;4.30;2.13;;;21.40;68.40;;;;;;4814179;29;20030;-75
2022/07/25 01:18:56;;;;;;;4.07;2.00;;;21.40;68.40;;;;;;4814425;29;20404;-75
2022/07/25 01:21:23;;;;;;;4.93;1.95;;;21.40;68.50;;;;;;4818329;29;20038;-75
2022/07/25 01:23:49;;;;;;;3.97;1.98;;;21.30;68.40;;;;;;4816683;29;20126;-76
2022/07/25 01:26:15;;;;;;;4.80;2.00;;;21.30;68.40;;;;;;4814097;29;20061;-75
2022/07/25 01:28:41;;;;;;;3.78;1.80;;;21.30;68.40;;;;;;4816143;29;20521;-75
2022/07/25 01:31:07;;;;;;;4.22;1.85;;;21.30;68.40;;;;;;4815074;29;20060;-75
2022/07/25 01:33:33;;;;;;;2.72;1.42;;;21.30;68.50;;;;;;4811983;29;20037;-75
2022/07/25 01:35:59;;;;;;;6.35;2.53;;;21.30;68.50;;;;;;4814610;29;20110;-76
2022/07/25 01:38:25;;;;;;;4.80;2.15;;;21.30;68.50;;;;;;4814063;29;20057;-76
2022/07/25 01:40:51;;;;;;;4.47;1.70;;;21.30;68.50;;;;;;4815096;29;20382;-75
2022/07/25 01:43:17;;;;;;;5.88;1.80;;;21.30;68.60;;;;;;4813983;29;20069;-75
2022/07/25 01:45:43;;;;;;;5.32;1.90;;;21.30;68.60;;;;;;4814388;29;20114;-76
2022/07/25 01:48:09;;;;;;;6.10;2.05;;;21.30;68.60;;;;;;4815449;29;20041;-76
2022/07/25 01:50:35;;;;;;;4.15;2.20;;;21.20;68.50;;;;;;4817207;29;20035;-75
2022/07/25 01:53:01;;;;;;;3.00;1.67;;;21.20;68.50;;;;;;4798407;29;20035;-75
2022/07/25 01:55:27;;;;;;;3.22;1.60;;;21.20;68.60;;;;;;4815005;29;20131;-75
2022/07/25 01:57:52;;;;;;;5.38;1.83;;;21.20;68.60;;;;;;4812471;29;20038;-75
2022/07/25 02:00:18;;;;;;;6.03;2.33;;;21.10;68.40;;;;;;4797811;29;20046;-75
2022/07/25 02:02:45;;;;;;;4.20;2.38;;;21.20;68.60;;;;;;4813557;29;20038;-75
2022/07/25 02:05:12;;;;;;;2.55;1.58;;;21.10;68.50;;;;;;4814176;29;20318;-75
2022/07/25 02:07:38;;;;;;;5.47;2.08;;;21.10;68.60;;;;;;4798333;29;20420;-76
2022/07/25 02:10:05;;;;;;;3.83;2.17;;;21.10;68.60;;;;;;4813280;29;20031;-75
2022/07/25 02:12:32;;;;;;;4.75;2.38;;;21.10;68.60;;;;;;4812441;29;20060;-76
2022/07/25 02:14:58;;;;;;;4.10;1.85;;;21.10;68.70;;;;;;4814793;29;20100;-76
2022/07/25 02:17:24;;;;;;;2.58;1.95;;;21.10;68.70;;;;;;4812978;29;20673;-75
2022/07/25 02:19:50;;;;;;;3.80;1.60;;;21.00;68.60;;;;;;4814547;29;20042;-75
2022/07/25 02:22:16;;;;;;;4.20;1.80;;;21.00;68.60;;;;;;4815347;29;20038;-76
2022/07/25 02:24:42;;;;;;;5.50;2.25;;;21.00;68.70;;;;;;4815159;29;20038;-76
2022/07/25 02:27:08;;;;;;;4.43;1.80;;;21.00;68.70;;;;;;4816286;29;20656;-76
2022/07/25 02:29:34;;;;;;;5.43;2.47;;;21.00;68.80;;;;;;4812590;29;20883;-75
2022/07/25 02:32:00;;;;;;;4.63;1.88;;;21.00;68.80;;;;;;4815463;29;20490;-76
2022/07/25 02:34:26;;;;;;;5.53;1.88;;;21.00;68.80;;;;;;4815229;29;20049;-75
2022/07/25 02:36:52;;;;;;;4.30;1.65;;;20.90;68.70;;;;;;4813832;29;20717;-75
2022/07/25 02:39:18;;;;;;;3.15;1.70;;;20.90;68.70;;;;;;4798268;29;20076;-76
2022/07/25 02:41:44;;;;;;;5.55;2.03;;;20.90;68.70;;;;;;4814617;29;20034;-76
2022/07/25 02:44:10;;;;;;;4.85;2.10;;;20.90;68.80;;;;;;4797331;29;20046;-75
2022/07/25 02:46:36;;;;;;;4.70;2.47;;;20.90;68.80;;;;;;4797220;29;20034;-75
2022/07/25 02:49:02;;;;;;;2.63;1.55;;;20.90;68.80;;;;;;4814861;29;20134;-74
2022/07/25 02:51:28;;;;;;;4.97;1.95;;;20.90;68.90;;;;;;4814813;29;20030;-75
2022/07/25 02:53:54;;;;;;;2.88;1.40;;;20.90;68.90;;;;;;4816607;29;20038;-75
2022/07/25 02:56:20;;;;;;;3.95;2.00;;;20.90;68.90;;;;;;4813436;29;20091;-75
2022/07/25 02:58:45;;;;;;;3.58;1.58;;;20.90;69.00;;;;;;4816484;29;20497;-75
2022/07/25 03:01:12;;;;;;;2.05;1.50;;;20.80;68.80;;;;;;4814338;29;20038;-75
2022/07/25 03:03:38;;;;;;;5.53;1.58;;;20.90;69.00;;;;;;4812371;29;20038;-75
2022/07/25 03:06:04;;;;;;;5.40;2.30;;;20.90;69.00;;;;;;4813391;29;20038;-76
2022/07/25 03:08:30;;;;;;;4.75;1.55;;;20.80;68.90;;;;;;4799416;29;20034;-76
2022/07/25 03:10:57;;;;;;;5.47;2.65;;;20.80;68.90;;;;;;4815398;29;20026;-75
2022/07/25 03:13:24;;;;;;;2.97;1.85;;;20.80;69.00;;;;;;4814395;29;20022;-75
2022/07/25 03:15:50;;;;;;;1.35;1.08;;;20.80;69.20;;;;;;4782552;29;20053;-76
2022/07/25 03:18:16;;;;;;;2.20;1.35;;;20.80;69.10;;;;;;4812451;29;20046;-76
2022/07/25 03:20:42;;;;;;;2.70;1.50;;;20.80;69.20;;;;;;4813521;29;20066;-75
2022/07/25 03:23:08;;;;;;;4.20;1.40;;;20.80;69.20;;;;;;4821325;29;20077;-75
2022/07/25 03:25:33;;;;;;;3.78;1.48;;;20.70;69.10;;;;;;4819204;29;20766;-75
2022/07/25 03:27:59;;;;;;;4.65;1.75;;;20.70;69.20;;;;;;4820977;29;20035;-76
2022/07/25 03:30:25;;;;;;;1.98;1.08;;;20.70;69.30;;;;;;4820866;29;20553;-75
2022/07/25 03:32:52;;;;;;;1.77;1.42;;;20.70;69.40;;;;;;4820552;29;20061;-76
2022/07/25 03:35:17;;;;;;;1.95;1.30;;;20.70;69.40;;;;;;4802887;29;20026;-76
2022/07/25 03:37:44;;;;;;;4.28;1.23;;;20.60;69.30;;;;;;4819460;29;20068;-76
2022/07/25 03:40:10;;;;;;;4.53;1.50;;;20.60;69.40;;;;;;4820166;29;20038;-76
2022/07/25 03:42:36;;;;;;;5.68;1.40;;;20.60;69.50;;;;;;4819227;29;20535;-76
2022/07/25 03:45:03;;;;;;;2.28;1.05;;;20.60;69.60;;;;;;4819323;29;20496;-76
2022/07/25 03:47:29;;;;;;;3.00;1.20;;;20.60;69.60;;;;;;4800880;29;20236;-75
2022/07/25 03:49:55;;;;;;;6.35;1.42;;;20.50;69.40;;;;;;4820529;29;20584;-76
2022/07/25 03:52:21;;;;;;;1.50;1.05;;;20.50;69.50;;;;;;4820843;29;20038;-76
2022/07/25 03:54:47;;;;;;;3.85;0.90;;;20.50;69.60;;;;;;4819330;29;20354;-76
2022/07/25 03:57:13;;;;;;;3.88;1.40;;;20.50;69.60;;;;;;4802346;29;20027;-75
2022/07/25 03:59:39;;;;;;;4.97;1.17;;;20.40;69.50;;;;;;4818855;29;20071;-76
2022/07/25 04:02:04;;;;;;;2.45;1.00;;;20.40;69.60;;;;;;4818024;29;20442;-76
2022/07/25 04:04:30;;;;;;;5.10;1.63;;;20.40;69.60;;;;;;4820392;29;20694;-77
2022/07/25 04:06:56;;;;;;;2.63;1.83;;;20.40;69.60;;;;;;4822210;29;20034;-76
2022/07/25 04:09:22;;;;;;;1.40;0.80;;;20.40;69.60;;;;;;4822602;29;20074;-76
2022/07/25 04:11:48;;;;;;;2.22;0.90;;;20.40;69.70;;;;;;4817742;29;20038;-75
2022/07/25 04:14:14;;;;;;;2.33;0.80;;;20.30;69.50;;;;;;4816852;29;20038;-76
2022/07/25 04:16:40;;;;;;;3.47;1.48;;;20.30;69.60;;;;;;4818364;29;20133;-76
2022/07/25 04:19:06;;;;;;;2.83;1.10;;;20.30;69.60;;;;;;4820858;29;20619;-75
2022/07/25 04:21:33;;;;;;;2.47;1.13;;;20.30;70.20;;;;;;4822211;29;20368;-76
2022/07/25 04:23:59;;;;;;;2.60;1.73;;;20.30;69.70;;;;;;4824094;29;20034;-76
2022/07/25 04:26:25;;;;;;;3.60;1.38;;;20.30;69.70;;;;;;4822140;29;20843;-76
2022/07/25 04:28:50;;;;;;;2.80;0.88;;;20.20;69.60;;;;;;4823098;29;20413;-76
2022/07/25 04:31:17;;;;;;;3.60;1.15;;;20.20;69.60;;;;;;4824405;29;20039;-76
2022/07/25 04:33:43;;;;;;;3.15;1.00;;;20.20;69.60;;;;;;4816087;29;20026;-76
2022/07/25 04:36:09;;;;;;;2.58;1.10;;;20.20;69.70;;;;;;4816549;29;20125;-76
2022/07/25 04:38:35;;;;;;;3.33;0.90;;;20.20;69.70;;;;;;4817647;29;20077;-76
2022/07/25 04:41:02;;;;;;;2.88;0.90;;;20.20;69.80;;;;;;4819398;29;20045;-76
2022/07/25 04:43:28;;;;;;;4.57;1.40;;;20.20;69.80;;;;;;4816014;29;20042;-76
2022/07/25 04:45:54;;;;;;;2.35;0.88;;;20.20;69.80;;;;;;4818347;29;20034;-76
2022/07/25 04:48:20;;;;;;;3.25;1.65;;;20.10;69.60;;;;;;4814801;29;20472;-75
2022/07/25 04:50:46;;;;;;;4.30;1.60;;;20.10;69.70;;;;;;4814797;29;20031;-76
2022/07/25 04:53:12;;;;;;;4.75;1.13;;;20.20;69.90;;;;;;4816838;29;20030;-76
2022/07/25 04:55:38;;;;;;;3.05;0.93;;;20.10;69.70;;;;;;4815980;29;20118;-76
2022/07/25 04:58:04;;;;;;;2.75;0.98;;;20.10;69.70;;;;;;4802290;29;20080;-76
2022/07/25 05:00:31;;;;;;;4.80;1.15;;;20.10;69.80;;;;;;4801214;29;20034;-76
2022/07/25 05:02:57;;;;;;;2.17;1.27;;;20.10;69.80;;;;;;4812907;29;20118;-76
2022/07/25 05:05:23;;;;;;;4.72;0.80;;;20.10;69.80;;;;;;4818014;29;20042;-77
2022/07/25 05:07:54;;;;;;;6.68;1.92;;;20.10;69.80;;;;;;4818208;29;20075;-77
2022/07/25 05:10:20;;;;;;;3.28;1.42;;;20.10;69.70;;;;;;4800139;29;20079;-77
2022/07/25 05:12:45;;;;;;;1.70;0.70;;;20.20;69.80;;;;;;4811855;29;20034;-77
2022/07/25 05:15:11;;;;;;;2.15;0.90;;;20.10;69.70;;;;;;4817269;29;20030;-78
2022/07/25 05:17:37;;;;;;;3.92;0.80;;;20.20;69.90;;;;;;4815648;29;20026;-80
2022/07/25 05:20:04;;;;;;;2.58;0.80;;;20.20;70.00;;;;;;4800595;29;20093;-80
2022/07/25 05:22:30;;;;;;;3.42;1.63;;;20.20;70.30;;;;;;4816659;29;20035;-77
2022/07/25 05:24:56;;;;;;;3.13;0.88;;;20.20;70.90;;;;;;4816579;29;20130;-81
2022/07/25 05:27:22;;;;;;;2.95;0.93;;;20.30;71.40;;;;;;4802958;29;20121;-77
2022/07/25 05:29:48;;;;;;;4.40;1.85;;;20.30;71.90;;;;;;4814292;29;20022;-77
2022/07/25 05:32:14;;;;;;;2.22;1.10;;;20.40;71.50;;;;;;4813602;29;20034;-77
2022/07/25 05:34:40;;;;;;;3.00;0.63;;;20.40;71.50;;;;;;4816021;29;20477;-80
2022/07/25 05:37:05;;;;;;;3.25;1.25;;;20.40;71.40;;;;;;4814579;29;20458;-78
2022/07/25 05:39:31;;;;;;;2.63;0.82;;;20.40;71.30;;;;;;4813158;29;20268;-78
2022/07/25 05:41:57;;;;;;;1.85;0.80;;;20.50;71.40;;;;;;4814622;29;20030;-78
2022/07/25 05:44:23;;;;;;;3.35;0.95;;;20.50;71.30;;;;;;4813532;29;20516;-76
2022/07/25 05:46:49;;;;;;;1.75;0.60;;;20.50;71.20;;;;;;4813522;29;20300;-77
2022/07/25 05:49:15;;;;;;;2.42;0.80;;;20.50;71.10;;;;;;4818525;29;20049;-75
2022/07/25 05:51:41;;;;;;;3.72;0.93;;;20.60;71.20;;;;;;4814356;29;20552;-76
2022/07/25 05:54:07;;;;;;;3.25;0.75;;;20.70;71.20;;;;;;4815366;29;20130;-76
2022/07/25 05:56:33;;;;;;;3.80;0.77;;;20.70;71.00;;;;;;4815397;29;20034;-76
2022/07/25 05:58:58;;;;;;;1.73;0.77;;;20.70;70.90;;;;;;4814518;29;20290;-77
2022/07/25 06:01:24;;;;;;;2.65;1.20;;;20.80;70.90;;;;;;4815535;29;20034;-77
2022/07/25 06:03:50;;;;;;;1.88;0.60;;;20.70;70.70;;;;;;4814672;29;20439;-77
2022/07/25 06:06:16;;;;;;;1.60;0.93;;;20.80;70.80;;;;;;4816897;29;20041;-78
2022/07/25 06:08:42;;;;;;;2.88;1.20;;;20.80;70.80;;;;;;4799034;29;20539;-79
2022/07/25 06:11:09;;;;;;;3.88;0.98;;;20.80;70.70;;;;;;4821021;29;20513;-76
2022/07/25 06:13:35;;;;;;;2.35;1.00;;;20.70;70.50;;;;;;4820013;29;20034;-75
2022/07/25 06:16:01;;;;;;;5.53;0.80;;;20.80;70.60;;;;;;4821188;29;20042;-78
2022/07/25 06:18:27;;;;;;;1.85;1.02;;;20.80;70.60;;;;;;4816266;29;20053;-79
2022/07/25 06:20:53;;;;;;;6.53;1.50;;;20.80;70.60;;;;;;4817216;29;20019;-79
2022/07/25 06:23:19;;;;;;;10.27;2.95;;;20.80;70.60;;;;;;4815212;29;20195;-81
2022/07/25 06:25:46;;;;;;;6.45;3.17;;;20.80;70.70;;;;;;4814906;29;20434;-78
2022/07/25 06:28:13;;;;;;;9.55;2.75;;;20.80;70.80;;;;;;4815917;29;20034;-78
2022/07/25 06:30:43;;;;;;;7.43;1.83;;;20.80;70.80;;;;;;4812819;29;20576;-78
2022/07/25 06:33:09;;;;;;;10.20;2.22;;;20.80;70.80;;;;;;4811457;29;20030;-78
2022/07/25 06:35:35;;;;;;;4.30;1.77;;;20.80;70.70;;;;;;4814266;29;20034;-78
2022/07/25 06:38:01;;;;;;;5.30;1.63;;;20.80;70.70;;;;;;4799313;29;20058;-79
2022/07/25 06:40:28;;;;;;;5.80;1.98;;;20.80;70.60;;;;;;4797436;29;20058;-78
2022/07/25 06:42:54;;;;;;;6.75;1.90;;;21.00;70.70;;;;;;4812649;29;20409;-79
2022/07/25 06:45:20;;;;;;;6.28;1.80;;;21.10;70.60;;;;;;4813415;29;20034;-79
2022/07/25 06:47:46;;;;;;;6.20;2.08;;;21.20;70.50;;;;;;4812547;29;20723;-79
2022/07/25 06:50:14;;;;;;;5.90;1.88;;;21.20;70.30;;;;;;4813303;29;20041;-79
2022/07/25 06:52:41;;;;;;;7.22;2.38;;;21.30;70.30;;;;;;4796020;29;20391;-79
2022/07/25 06:55:08;;;;;;;5.82;1.98;;;21.30;70.20;;;;;;4813159;29;20113;-79
2022/07/25 06:57:35;;;;;;;4.80;1.70;;;21.30;70.20;;;;;;4796229;29;20091;-79
2022/07/25 07:00:07;;;;;;;3.95;1.52;;;21.30;70.20;;;;;;4797278;29;20044;-78
2022/07/25 07:02:34;;;;;;;6.18;1.67;;;21.20;70.10;;;;;;4813246;29;20611;-79
2022/07/25 07:04:59;;;;;;;4.93;2.17;;;21.30;70.20;;;;;;4815766;29;20042;-79
2022/07/25 07:07:25;;;;;;;3.92;2.08;;;21.40;70.20;;;;;;4815596;29;20074;-79
2022/07/25 07:09:51;;;;;;;5.80;1.80;;;21.50;70.10;;;;;;4813065;29;20408;-81
2022/07/25 07:12:17;;;;;;;4.75;1.63;;;21.60;70.00;;;;;;4814831;29;20038;-77
2022/07/25 07:14:44;;;;;;;3.95;1.85;;;21.70;69.80;;;;;;4815847;29;20069;-77
2022/07/25 07:17:10;;;;;;;4.13;1.40;;;21.80;69.90;;;;;;4811011;29;20039;-79
2022/07/25 07:19:42;;;;;;;5.43;1.70;;;21.80;69.80;;;;;;4813760;29;20042;-80
2022/07/25 07:22:08;;;;;;;4.50;1.30;;;21.90;69.80;;;;;;4799167;29;20055;-80
2022/07/25 07:24:34;;;;;;;4.53;1.77;;;21.90;69.70;;;;;;4813319;29;20454;-79
2022/07/25 07:27:00;;;;;;;2.72;1.30;;;22.00;69.80;;;;;;4819329;29;20058;-81
2022/07/25 07:29:27;;;;;;;3.55;1.52;;;22.00;69.80;;;;;;4816459;29;20489;-80
2022/07/25 07:31:55;;;;;;;4.72;1.58;;;22.10;69.80;;;;;;4792983;29;20331;-80
2022/07/25 07:34:21;;;;;;;3.47;1.27;;;22.10;69.60;;;;;;4813018;29;20502;-80
2022/07/25 07:36:47;;;;;;;3.60;1.38;;;22.30;69.70;;;;;;4813652;29;20119;-80
2022/07/25 07:39:13;;;;;;;4.78;1.77;;;22.40;69.50;;;;;;4817869;29;20133;-78
2022/07/25 07:41:39;;;;;;;4.22;1.23;;;22.60;69.40;;;;;;4814610;29;20057;-79
2022/07/25 07:44:06;;;;;;;4.55;1.45;;;22.70;69.30;;;;;;4815059;29;20391;-79
2022/07/25 07:46:32;;;;;;;4.30;1.42;;;22.80;69.20;;;;;;4815953;29;20524;-81
2022/07/25 07:48:58;;;;;;;3.63;1.15;;;23.00;69.20;;;;;;4811794;29;20125;-79
2022/07/25 07:51:24;;;;;;;3.05;1.15;;;23.30;69.20;;;;;;4812434;29;20030;-76
2022/07/25 07:56:35;;;;;;;3.80;0.90;;;23.70;68.90;;;;;;4811937;29;20045;-76
2022/07/25 07:59:00;;;;;;;4.18;1.23;;;24.10;68.60;;;;;;4811489;29;20555;-75
2022/07/25 08:01:26;;;;;;;4.07;1.38;;;24.40;68.30;;;;;;4808680;29;20356;-75
2022/07/25 08:03:52;;;;;;;4.15;0.93;;;24.70;68.30;;;;;;4810466;29;20050;-76
2022/07/25 08:06:19;;;;;;;2.60;1.00;;;24.80;67.90;;;;;;4814418;29;20054;-79
2022/07/25 08:08:45;;;;;;;3.53;1.67;;;24.90;67.80;;;;;;4797830;29;20034;-79
2022/07/25 08:11:11;;;;;;;4.40;1.33;;;24.90;67.70;;;;;;4816606;29;20038;-80
2022/07/25 08:13:37;;;;;;;3.17;1.23;;;24.90;67.80;;;;;;4816311;29;20397;-79
2022/07/25 08:16:04;;;;;;;6.30;1.40;;;24.80;67.70;;;;;;4817893;29;20056;-81
2022/07/25 08:18:31;;;;;;;6.78;0.95;;;24.70;67.70;;;;;;4817061;29;20046;-80
2022/07/25 08:21:05;;;;;;;2.03;1.10;;;24.60;67.70;;;;;;4813339;29;20060;-79
2022/07/25 08:23:34;;;;;;;3.92;1.25;;;24.40;67.60;;;;;;4818081;29;20485;-79
2022/07/25 08:26:01;;;;;;;6.30;1.60;;;24.20;67.50;;;;;;4819508;29;20030;-78
2022/07/25 08:28:27;;;;;;;3.85;1.40;;;24.10;67.60;;;;;;4817206;29;20449;-76
2022/07/25 08:30:53;;;;;;;5.80;1.88;;;24.10;67.90;;;;;;4815078;29;20038;-76
2022/07/25 08:33:19;;;;;;;5.00;1.77;;;24.00;67.80;;;;;;4814270;29;20038;-76
2022/07/25 08:35:52;;;;;;;3.90;1.25;;;24.00;67.80;;;;;;4816147;29;20389;-77
2022/07/25 08:38:18;;;;;;;;;;;24.00;67.70;;;;;;4814318;29;20050;-76
2022/07/25 08:40:44;;;;;;;3.50;1.73;;;24.10;67.90;;;;;;4815151;29;19927;-76
2022/07/25 08:43:12;;;;;;;3.72;1.33;;;24.10;67.70;;;;;;4813867;29;20546;-77
2022/07/25 08:45:45;;;;;;;5.03;1.88;;;24.30;67.60;;;;;;4815001;29;20065;-77
2022/07/25 08:48:11;;;;;;;5.68;1.42;;;24.60;67.60;;;;;;4800326;29;20372;-77
2022/07/25 08:50:38;;;;;;;6.72;1.75;;;24.80;67.40;;;;;;4814708;29;20431;-77
2022/07/25 08:53:04;;;;;;;3.45;1.77;;;25.00;67.40;;;;;;4814610;29;20031;-77
2022/07/25 08:55:31;;;;;;;4.20;1.45;;;25.10;67.00;;;;;;4815795;29;20018;-77
2022/07/25 08:57:57;;;;;;;4.20;1.88;;;25.20;66.70;;;;;;4800843;29;20054;-78
2022/07/25 09:00:25;;;;;;;7.13;1.48;;;25.40;66.50;;;;;;4817326;29;20415;-78
2022/07/25 09:03:00;;;;;;;4.25;1.67;;;25.50;66.30;;;;;;4811827;29;20469;-78
2022/07/25 09:05:28;;;;;;;7.75;1.92;;;25.50;66.00;;;;;;4813606;29;20420;-78
2022/07/25 09:07:55;;;;;;;5.93;1.63;;;25.60;66.00;;;;;;4814723;29;20113;-78
2022/07/25 09:10:27;;;;;;;3.90;1.70;;;25.70;65.80;;;;;;4821128;29;20038;-78
2022/07/25 09:13:00;;;;;;;4.88;2.38;;;25.90;65.60;;;;;;4817673;29;20093;-78
2022/07/25 09:15:30;;;;;;;3.85;1.60;;;26.10;65.40;;;;;;4822536;29;20477;-77
2022/07/25 09:17:58;;;;;;;3.47;1.70;;;26.30;64.90;;;;;;4828905;29;20045;-78
2022/07/25 09:20:42;;;;;;;3.65;1.88;;;26.60;64.50;;;;;;4824190;29;20041;-78
2022/07/25 09:23:14;;;;;;;4.47;1.40;;;26.90;63.80;;;;;;4824211;29;20082;-79
2022/07/25 09:25:40;;;;;;;2.67;1.30;;;27.20;63.40;;;;;;4820404;29;20457;-78
2022/07/25 09:28:17;;;;;;;3.60;1.40;;;27.30;63.00;;;;;;4800274;29;20030;-79
2022/07/25 09:31:00;;;;;;;3.03;1.33;;;27.50;63.20;;;;;;4798608;29;20046;-76
2022/07/25 09:33:27;;;;;;;4.55;1.65;;;27.70;62.10;;;;;;4809513;29;20030;-77
2022/07/25 09:35:55;;;;;;;4.57;1.27;;;28.00;61.90;;;;;;4815982;29;20117;-77
2022/07/25 09:38:22;;;;;;;4.38;1.70;;;28.10;61.50;;;;;;4811711;29;20070;-77
2022/07/25 09:40:56;;;;;;;2.08;1.42;;;28.40;61.10;;;;;;4799480;29;20041;-80
2022/07/25 09:43:34;;;;;;;3.80;1.75;;;28.60;60.60;;;;;;4812288;29;20098;-80
2022/07/25 09:46:00;;;;;;;3.00;1.48;;;28.80;60.20;;;;;;4802093;29;20038;-79
2022/07/25 09:48:26;;;;;;;2.88;1.58;;;28.80;60.00;;;;;;4812926;29;20029;-79
2022/07/25 09:50:53;;;;;;;3.05;1.88;;;28.80;59.70;;;;;;4798359;29;20038;-79
2022/07/25 09:53:19;;;;;;;4.07;1.25;;;29.00;59.50;;;;;;4815343;29;20083;-79
2022/07/25 09:55:45;;;;;;;3.10;1.73;;;29.10;59.00;;;;;;4798638;29;20503;-79
2022/07/25 09:58:14;;;;;;;4.10;2.22;;;29.20;58.00;;;;;;4817467;29;20046;-79
2022/07/25 10:00:41;;;;;;;5.03;2.22;;;29.10;56.80;;;;;;4809678;29;20034;-81
2022/07/25 10:03:30;;;;;;;6.22;2.35;;;28.80;56.80;;;;;;4812943;29;20036;-79
2022/07/25 10:06:08;;;;;;;6.57;3.25;;;28.50;56.20;;;;;;4814835;29;20034;-79
2022/07/25 10:08:37;;;;;;;4.28;2.10;;;28.20;56.50;;;;;;4819183;29;20023;-79
2022/07/25 10:11:05;;;;;;;6.57;2.25;;;28.00;56.70;;;;;;4815078;29;20462;-80
2022/07/25 10:13:33;;;;;;;4.55;2.28;;;27.80;56.70;;;;;;4814482;29;20034;-79
2022/07/25 10:16:00;;;;;;;6.78;2.40;;;27.80;56.70;;;;;;4799501;29;20022;-78
2022/07/25 10:18:29;;;;;;;6.43;2.67;;;27.80;56.40;;;;;;4814460;29;20338;-79
2022/07/25 10:21:15;;;;;;;2.92;1.98;;;27.80;56.20;;;;;;4817855;29;20209;-79
2022/07/25 10:23:42;;;;;;;5.85;2.20;;;27.80;55.90;;;;;;4798272;29;20065;-78
2022/07/25 10:26:08;;;;;;;3.45;2.25;;;27.70;56.30;;;;;;4816784;29;20133;-79
2022/07/25 10:28:43;;;;;;;6.03;2.05;;;27.50;56.30;;;;;;4815695;29;20113;-79
2022/07/25 10:31:31;;;;;;;3.03;1.55;;;27.30;56.40;;;;;;4798843;29;20477;-79
2022/07/25 10:34:00;;;;;;;2.75;1.55;;;27.10;56.30;;;;;;4812363;29;20173;-78
2022/07/25 10:36:30;;;;;;;5.00;1.40;;;27.10;56.60;;;;;;4813057;29;20508;-78
2022/07/25 10:38:59;;;;;;;3.05;1.75;;;27.20;56.60;;;;;;4813692;29;20053;-79
2022/07/25 10:41:27;;;;;;;1.98;1.27;;;27.30;56.30;;;;;;4812813;29;20026;-79
2022/07/25 10:43:56;;;;;;;2.15;1.52;;;27.30;56.10;;;;;;4810043;29;20038;-79
2022/07/25 10:46:26;;;;;;;4.03;1.45;;;27.30;55.80;;;;;;4810752;29;20094;-81
2022/07/25 10:49:06;;;;;;;5.05;1.52;;;27.50;55.50;;;;;;4813728;29;20034;-79
2022/07/25 10:51:34;;;;;;;3.75;1.55;;;27.50;55.00;;;;;;4813582;29;20501;-79
2022/07/25 10:54:15;;;;;;;1.52;1.10;;;27.40;55.10;;;;;;4816430;29;20341;-79
2022/07/25 10:56:56;;;;;;;6.60;1.58;;;27.30;55.10;;;;;;4812553;29;20441;-81
2022/07/25 10:59:34;;;;;;;4.03;1.23;;;27.20;55.30;;;;;;4813824;29;20042;-80
2022/07/25 11:02:01;;;;;;;7.05;1.95;;;27.30;55.50;;;;;;4811228;29;20030;-81
2022/07/25 11:04:27;;;;;;;5.97;1.92;;;27.30;55.50;;;;;;4813395;29;20060;-82
2022/07/25 11:06:53;;;;;;;6.95;1.63;;;27.20;55.50;;;;;;4812883;29;20049;-80
2022/07/25 11:09:26;;;;;;;8.23;2.00;;;27.20;55.60;;;;;;4813691;29;20034;-81
2022/07/25 11:11:55;;;;;;;3.72;1.80;;;27.20;55.70;;;;;;4795060;29;20445;-80
2022/07/25 11:14:32;;;;;;;3.72;1.17;;;27.10;55.80;;;;;;4815178;29;20113;-81
2022/07/25 11:17:18;;;;;;;3.15;1.77;;;26.90;55.80;;;;;;4810545;29;20041;-78
2022/07/25 11:19:55;;;;;;;3.67;1.77;;;26.70;55.90;;;;;;4812106;29;20095;-79
2022/07/25 11:22:21;;;;;;;3.38;1.38;;;26.50;56.30;;;;;;4811896;29;20103;-79
2022/07/25 11:24:47;;;;;;;4.95;1.58;;;26.50;57.10;;;;;;4813649;29;20319;-79
2022/07/25 11:27:21;;;;;;;5.60;2.10;;;26.60;56.60;;;;;;4813947;29;20041;-80
2022/07/25 11:29:47;;;;;;;4.93;1.73;;;26.70;56.50;;;;;;4811481;29;20039;-78
2022/07/25 11:32:13;;;;;;;3.08;1.35;;;26.70;56.40;;;;;;4812434;29;20448;-78
2022/07/25 11:34:48;;;;;;;3.15;1.38;;;26.70;56.50;;;;;;4814646;29;20035;-79
2022/07/25 11:37:15;;;;;;;3.78;1.63;;;26.70;56.50;;;;;;4816821;29;20076;-79
2022/07/25 11:39:43;;;;;;;5.10;1.75;;;26.80;56.60;;;;;;4817292;29;20417;-78
2022/07/25 11:42:17;;;;;;;3.78;2.05;;;26.80;56.60;;;;;;4813286;29;20046;-78
2022/07/25 11:44:48;;;;;;;4.78;2.13;;;26.80;56.70;;;;;;4800904;29;20045;-79
2022/07/25 11:47:29;;;;;;;4.45;2.38;;;26.70;56.80;;;;;;4816461;29;20049;-78
2022/07/25 11:50:00;;;;;;;3.80;1.73;;;26.60;57.20;;;;;;4816768;29;20505;-79
2022/07/25 11:52:32;;;;;;;9.52;2.50;;;26.50;57.40;;;;;;4813190;29;20092;-80
2022/07/25 11:55:10;;;;;;;7.40;1.55;;;26.40;57.80;;;;;;4817288;29;20088;-81
2022/07/25 11:57:40;;;;;;;5.43;1.92;;;26.30;58.00;;;;;;4815874;29;20381;-81
2022/07/25 12:00:16;;;;;;;3.78;1.90;;;26.30;58.80;;;;;;4803053;29;20572;-81
2022/07/25 12:02:43;;;;;;;5.18;2.05;;;26.30;58.20;;;;;;4815241;29;20091;-81
2022/07/25 12:05:11;;;;;;;2.90;1.60;;;26.30;58.30;;;;;;4819575;29;20161;-82
2022/07/25 12:07:43;;;;;;;2.85;1.40;;;26.30;58.40;;;;;;4816955;29;20670;-79
2022/07/25 12:10:22;;;;;;;4.57;1.67;;;26.30;58.40;;;;;;4819725;29;20073;-82
2022/07/25 12:12:50;;;;;;;4.70;1.58;;;26.20;58.30;;;;;;4823296;29;20038;-81
2022/07/25 12:15:20;;;;;;;2.17;1.63;;;26.30;58.20;;;;;;4820779;29;20090;-77
2022/07/25 12:17:47;;;;;;;11.13;2.00;;;26.30;58.10;;;;;;4821665;29;20509;-80
2022/07/25 12:20:19;;;;;;;3.85;1.60;;;26.30;57.90;;;;;;4821385;29;20069;-80
2022/07/25 12:22:47;;;;;;;3.83;1.65;;;26.30;57.90;;;;;;4815162;29;20030;-80
2022/07/25 12:25:13;;;;;;;4.88;2.13;;;26.30;58.00;;;;;;4815385;29;20034;-79
2022/07/25 12:27:39;;;;;;;7.20;2.28;;;26.40;57.80;;;;;;4816021;29;20035;-78
2022/07/25 12:30:07;;;;;;;6.47;2.08;;;26.50;57.80;;;;;;4816478;29;20085;-83
2022/07/25 12:32:33;;;;;;;7.07;2.10;;;26.50;57.60;;;;;;4814147;29;20038;-81
2022/07/25 12:34:59;;;;;;;6.72;1.98;;;26.50;57.60;;;;;;4816575;29;20034;-80
2022/07/25 12:37:26;;;;;;;7.07;2.08;;;26.50;57.80;;;;;;4819193;29;20054;-79
2022/07/25 12:39:53;;;;;;;9.20;2.85;;;26.40;58.00;;;;;;4801287;29;20038;-79
2022/07/25 12:42:19;;;;;;;8.15;2.15;;;26.20;58.40;;;;;;4813920;29;20373;-78
2022/07/25 12:44:45;;;;;;;4.40;2.00;;;26.10;59.00;;;;;;4816228;29;20034;-81
2022/07/25 12:47:10;;;;;;;5.05;2.08;;;25.90;59.50;;;;;;4814019;29;20446;-79
2022/07/25 12:49:37;;;;;;;3.22;1.77;;;25.90;60.10;;;;;;4816009;29;20042;-80
2022/07/25 12:52:03;;;;;;;3.00;1.42;;;25.90;60.30;;;;;;4816120;29;20042;-81